createdAt,value
2022-12-19T00:01:31.003Z,20.90
2022-12-19T00:04:02.359Z,23.40
2022-12-19T00:06:41.361Z,21.30
2022-12-19T00:09:13.288Z,20.30
2022-12-19T00:11:42.534Z,21.70
2022-12-19T00:14:11.973Z,21.80
2022-12-19T00:16:40.226Z,23.40
2022-12-19T00:19:10.716Z,22.20
2022-12-19T00:21:39.442Z,22.00
2022-12-19T00:24:20.024Z,23.40
2022-12-19T00:26:50.581Z,24.30
2022-12-19T00:29:18.905Z,21.70
2022-12-19T00:31:47.116Z,20.50
2022-12-19T00:34:15.619Z,23.90
2022-12-19T00:36:44.121Z,23.40
2022-12-19T00:39:12.271Z,23.60
2022-12-19T00:41:43.125Z,23.80
2022-12-19T00:44:14.592Z,21.40
2022-12-19T00:46:44.560Z,22.50
2022-12-19T00:49:21.413Z,23.90
2022-12-19T00:51:49.838Z,23.30
2022-12-19T00:54:18.724Z,22.00
2022-12-19T00:56:47.246Z,23.30
2022-12-19T00:59:15.477Z,24.10
2022-12-19T01:01:47.152Z,23.80
2022-12-19T01:04:38.261Z,24.40
2022-12-19T01:07:08.305Z,22.30
2022-12-19T01:09:37.189Z,23.20
2022-12-19T01:12:25.854Z,22.40
2022-12-19T01:15:03.992Z,23.80
2022-12-19T01:17:37.045Z,24.00
2022-12-19T01:20:20.227Z,23.90
2022-12-19T01:23:00.226Z,24.50
2022-12-19T01:25:29.099Z,23.60
2022-12-19T01:27:58.265Z,22.40
2022-12-19T01:30:27.731Z,23.00
2022-12-19T01:35:26.711Z,21.00
2022-12-19T01:38:06.098Z,23.20
2022-12-19T01:40:37.675Z,22.60
2022-12-19T01:43:06.885Z,21.80
2022-12-19T01:45:43.653Z,22.40
2022-12-19T01:48:32.558Z,22.90
2022-12-19T01:51:04.361Z,23.10
2022-12-19T01:53:45.766Z,21.80
2022-12-19T01:56:28.539Z,22.90
2022-12-19T01:59:05.656Z,22.40
2022-12-19T02:01:35.928Z,22.80
2022-12-19T02:04:08.022Z,23.00
2022-12-19T02:06:38.581Z,20.20
2022-12-19T02:09:07.112Z,22.50
2022-12-19T02:11:35.496Z,21.50
2022-12-19T02:14:04.043Z,22.90
2022-12-19T02:16:48.978Z,22.90
2022-12-19T02:20:06.257Z,20.70
2022-12-19T02:22:53.648Z,20.60
2022-12-19T02:25:59.033Z,21.70
2022-12-19T02:28:39.345Z,21.20
2022-12-19T02:31:21.668Z,22.00
2022-12-19T02:34:21.691Z,20.00
2022-12-19T02:37:16.329Z,20.80
2022-12-19T02:39:55.564Z,20.00
2022-12-19T02:42:30.699Z,17.20
2022-12-19T02:45:02.784Z,20.50
2022-12-19T02:47:33.883Z,20.30
2022-12-19T02:50:03.368Z,20.80
2022-12-19T02:52:31.773Z,19.60
2022-12-19T02:55:08.960Z,21.50
2022-12-19T02:57:36.994Z,21.90
2022-12-19T03:00:05.132Z,18.30
2022-12-19T03:03:00.621Z,19.30
2022-12-19T03:05:35.733Z,19.30
2022-12-19T03:08:28.837Z,18.30
2022-12-19T03:11:07.828Z,17.90
2022-12-19T03:13:40.643Z,18.50
2022-12-19T03:16:11.733Z,20.30
2022-12-19T03:18:40.325Z,19.20
2022-12-19T03:21:25.643Z,20.80
2022-12-19T03:23:55.742Z,17.70
2022-12-19T03:26:28.235Z,21.60
2022-12-19T03:29:09.210Z,20.20
2022-12-19T03:31:39.970Z,18.40
2022-12-19T03:34:18.847Z,19.90
2022-12-19T03:36:52.803Z,19.90
2022-12-19T03:39:23.522Z,19.90
2022-12-19T03:42:31.401Z,21.00
2022-12-19T03:45:02.248Z,18.60
2022-12-19T03:47:47.645Z,21.70
2022-12-19T03:50:16.021Z,19.30
2022-12-19T03:52:59.017Z,21.70
2022-12-19T03:55:50.326Z,20.40
2022-12-19T03:58:28.426Z,19.30
2022-12-19T04:00:58.415Z,20.20
2022-12-19T04:03:29.181Z,19.70
2022-12-19T04:06:00.769Z,17.50
2022-12-19T04:08:32.133Z,19.40
2022-12-19T04:11:08.098Z,21.80
2022-12-19T04:13:47.850Z,18.90
2022-12-19T04:17:03.142Z,22.10
2022-12-19T04:19:42.472Z,19.00
2022-12-19T04:22:19.942Z,19.20
2022-12-19T04:24:50.378Z,22.90
2022-12-19T04:27:20.771Z,19.50
2022-12-19T04:29:53.938Z,19.80
2022-12-19T04:32:24.746Z,21.20
2022-12-19T04:34:53.140Z,18.50
2022-12-19T04:37:21.461Z,18.70
2022-12-19T04:39:49.534Z,22.00
2022-12-19T04:42:17.640Z,21.70
2022-12-19T04:44:45.686Z,17.90
2022-12-19T04:47:14.431Z,20.50
2022-12-19T04:49:42.502Z,22.00
2022-12-19T04:52:10.953Z,20.90
2022-12-19T04:54:39.562Z,21.70
2022-12-19T04:57:08.055Z,22.80
2022-12-19T04:59:36.643Z,19.20
2022-12-19T05:02:04.938Z,23.50
2022-12-19T05:04:33.292Z,21.50
2022-12-19T05:07:01.395Z,20.00
2022-12-19T05:09:29.468Z,22.20
2022-12-19T05:11:57.662Z,23.90
2022-12-19T05:14:26.000Z,24.20
2022-12-19T05:17:00.372Z,24.10
2022-12-19T05:19:29.624Z,22.60
2022-12-19T05:21:57.715Z,22.80
2022-12-19T05:24:25.868Z,23.10
2022-12-19T05:26:54.047Z,24.90
2022-12-19T05:29:22.955Z,24.70
2022-12-19T05:31:50.967Z,23.00
2022-12-19T05:34:19.004Z,22.80
2022-12-19T05:36:47.118Z,22.10
2022-12-19T05:39:15.278Z,22.90
2022-12-19T05:41:47.510Z,20.20
2022-12-19T05:44:17.453Z,21.80
2022-12-19T05:46:45.795Z,22.30
2022-12-19T05:49:14.303Z,22.40
2022-12-19T05:51:42.691Z,24.30
2022-12-19T05:54:10.919Z,24.20
2022-12-19T05:56:38.989Z,25.70
2022-12-19T05:59:07.166Z,25.40
2022-12-19T06:01:35.826Z,23.10
2022-12-19T06:04:04.547Z,23.80
2022-12-19T06:06:33.279Z,25.20
2022-12-19T06:09:02.000Z,22.60
2022-12-19T06:11:30.655Z,21.20
2022-12-19T06:13:58.855Z,24.30
2022-12-19T06:16:27.275Z,23.70
2022-12-19T06:18:55.415Z,23.50
2022-12-19T06:21:24.106Z,23.50
2022-12-19T06:23:52.585Z,35.70
2022-12-19T06:26:22.665Z,41.10
2022-12-19T06:28:52.844Z,37.20
2022-12-19T06:31:23.412Z,32.20
2022-12-19T06:33:52.633Z,30.50
2022-12-19T06:36:24.729Z,31.50
2022-12-19T06:38:54.920Z,28.10
2022-12-19T06:41:41.655Z,30.60
2022-12-19T06:44:12.678Z,27.40
2022-12-19T06:46:42.022Z,25.20
2022-12-19T06:49:11.785Z,25.70
2022-12-19T06:51:40.467Z,27.10
2022-12-19T06:54:12.913Z,26.50
2022-12-19T06:56:43.253Z,22.30
2022-12-19T06:59:14.097Z,24.40
2022-12-19T07:01:43.663Z,24.70
2022-12-19T07:04:18.857Z,24.50
2022-12-19T07:06:50.103Z,47.40
2022-12-19T07:09:18.780Z,40.40
2022-12-19T07:11:46.975Z,80.80
2022-12-19T07:16:49.185Z,29.70
2022-12-19T07:19:18.708Z,26.50
2022-12-19T07:21:47.351Z,22.90
2022-12-19T07:24:16.252Z,26.10
2022-12-19T07:26:45.225Z,25.40
2022-12-19T07:29:14.380Z,26.00
2022-12-19T07:31:43.018Z,26.60
2022-12-19T07:34:14.638Z,26.30
2022-12-19T07:36:42.773Z,26.80
2022-12-19T07:39:11.247Z,27.40
2022-12-19T07:41:39.989Z,23.30
2022-12-19T07:44:08.500Z,23.10
2022-12-19T07:46:36.846Z,22.20
2022-12-19T07:49:08.557Z,22.30
2022-12-19T07:54:06.399Z,23.90
2022-12-19T07:56:35.490Z,22.80
2022-12-19T07:59:04.293Z,21.90
2022-12-19T08:01:37.328Z,21.70
2022-12-19T08:04:05.989Z,21.00
2022-12-19T08:06:40.615Z,21.40
2022-12-19T08:09:09.968Z,20.50
2022-12-19T08:11:39.898Z,20.60
2022-12-19T08:14:10.787Z,17.50
2022-12-19T08:17:11.131Z,17.40
2022-12-19T08:19:28.142Z,17.50
2022-12-19T08:21:56.423Z,18.90
2022-12-19T08:24:24.915Z,16.50
2022-12-19T08:26:53.582Z,16.60
2022-12-19T08:29:22.104Z,16.70
2022-12-19T08:31:51.051Z,18.00
2022-12-19T08:34:20.464Z,22.70
2022-12-19T08:36:48.770Z,19.50
2022-12-19T08:39:16.977Z,19.90
2022-12-19T08:41:45.261Z,17.80
2022-12-19T08:44:13.528Z,17.50
2022-12-19T08:46:46.509Z,20.00
2022-12-19T08:49:19.939Z,16.40
2022-12-19T08:51:49.907Z,17.00
2022-12-19T08:54:18.946Z,15.20
2022-12-19T08:56:47.374Z,14.10
2022-12-19T08:59:30.229Z,15.20
2022-12-19T09:02:04.041Z,16.10
2022-12-19T09:05:57.368Z,14.40
2022-12-19T09:07:23.140Z,13.20
2022-12-19T09:09:51.844Z,15.70
2022-12-19T09:12:25.201Z,15.70
2022-12-19T09:14:53.451Z,17.20
2022-12-19T09:17:22.013Z,14.20
2022-12-19T09:19:50.184Z,15.90
2022-12-19T09:22:18.418Z,15.10
2022-12-19T09:24:46.883Z,15.20
2022-12-19T09:27:15.315Z,14.40
2022-12-19T09:29:44.503Z,15.10
2022-12-19T09:32:12.977Z,14.70
2022-12-19T09:34:42.022Z,17.80
2022-12-19T09:37:16.893Z,14.80
2022-12-19T09:39:47.356Z,16.60
2022-12-19T09:42:19.007Z,15.50
2022-12-19T09:47:29.014Z,16.30
2022-12-19T09:49:59.803Z,15.70
2022-12-19T09:52:31.033Z,14.30
2022-12-19T09:55:19.434Z,16.90
2022-12-19T09:57:56.683Z,13.20
2022-12-19T10:00:35.196Z,17.00
2022-12-19T10:03:12.870Z,13.80
2022-12-19T10:06:30.239Z,15.90
2022-12-19T10:09:10.046Z,16.70
2022-12-19T10:12:45.022Z,16.30
2022-12-19T10:14:49.125Z,15.60
2022-12-19T10:17:27.236Z,18.20
2022-12-19T10:20:34.363Z,16.40
2022-12-19T10:23:21.630Z,14.30
2022-12-19T10:26:13.096Z,15.50
2022-12-19T10:28:58.692Z,16.60
2022-12-19T10:31:52.004Z,20.10
2022-12-19T10:34:34.000Z,15.00
2022-12-19T10:37:40.993Z,16.20
2022-12-19T10:40:31.101Z,17.10
2022-12-19T10:43:32.787Z,14.20
2022-12-19T10:46:13.771Z,16.90
2022-12-19T10:48:42.746Z,14.80
2022-12-19T10:51:19.366Z,16.60
2022-12-19T10:53:55.098Z,14.10
2022-12-19T10:56:37.197Z,14.10
2022-12-19T10:59:20.347Z,15.50
2022-12-19T11:02:00.170Z,13.40
2022-12-19T11:04:39.518Z,14.10
2022-12-19T11:09:58.370Z,16.60
2022-12-19T11:16:05.837Z,14.80
2022-12-19T11:22:46.922Z,13.30
2022-12-19T11:29:27.747Z,14.40
2022-12-19T11:29:36.768Z,12.60
2022-12-19T11:30:39.361Z,15.00
2022-12-19T11:30:48.666Z,14.50
2022-12-19T11:33:24.391Z,14.60
2022-12-19T11:35:55.726Z,12.50
2022-12-19T11:38:42.524Z,13.50
2022-12-19T11:41:38.150Z,14.40
2022-12-19T11:44:35.578Z,14.80
2022-12-19T11:47:35.718Z,15.50
2022-12-19T11:50:15.813Z,13.60
2022-12-19T11:53:06.622Z,15.00
2022-12-19T11:55:44.695Z,16.40
2022-12-19T11:58:13.684Z,16.00
2022-12-19T12:00:58.251Z,18.90
2022-12-19T12:04:01.999Z,14.10
2022-12-19T12:06:46.438Z,14.20
2022-12-19T12:15:12.717Z,12.10
2022-12-19T12:20:35.140Z,14.20
2022-12-19T12:25:39.594Z,13.00
2022-12-19T12:31:21.173Z,13.00
2022-12-19T12:31:41.610Z,12.80
2022-12-19T12:31:46.583Z,14.30
2022-12-19T12:32:05.071Z,13.80
2022-12-19T12:35:38.191Z,12.60
2022-12-19T12:41:03.384Z,11.80
2022-12-19T12:43:43.937Z,13.70
2022-12-19T12:46:18.323Z,13.30
2022-12-19T12:49:03.910Z,12.00
2022-12-19T12:51:35.415Z,12.40
2022-12-19T12:54:12.608Z,10.90
2022-12-19T12:56:42.576Z,11.50
2022-12-19T12:59:24.822Z,12.40
2022-12-19T13:01:59.775Z,13.50
2022-12-19T13:04:54.062Z,11.60
2022-12-19T13:07:50.418Z,12.10
2022-12-19T13:10:32.045Z,12.30
2022-12-19T13:13:14.623Z,10.00
2022-12-19T13:18:34.296Z,11.40
2022-12-19T13:21:05.936Z,11.90
2022-12-19T13:23:45.164Z,11.60
2022-12-19T13:26:50.129Z,11.70
2022-12-19T13:29:28.807Z,11.80
2022-12-19T13:32:13.496Z,11.70
2022-12-19T13:34:58.620Z,11.30
2022-12-19T13:39:57.112Z,12.50
2022-12-19T13:41:26.453Z,11.90
2022-12-19T13:44:01.251Z,9.60
2022-12-19T13:46:44.090Z,12.40
2022-12-19T13:49:34.654Z,11.10
2022-12-19T13:52:07.626Z,10.70
2022-12-19T13:54:46.819Z,10.30
2022-12-19T13:57:26.676Z,12.00
2022-12-19T14:00:01.360Z,13.00
2022-12-19T14:02:48.833Z,12.20
2022-12-19T14:05:36.066Z,13.10
2022-12-19T14:08:22.141Z,13.50
2022-12-19T14:11:45.500Z,12.80
2022-12-19T14:14:25.742Z,13.70
2022-12-19T14:17:09.606Z,12.70
2022-12-19T14:19:41.666Z,12.10
2022-12-19T14:22:20.778Z,10.40
2022-12-19T14:25:50.241Z,11.10
2022-12-19T14:28:25.550Z,13.80
2022-12-19T14:31:02.899Z,13.40
2022-12-19T14:34:35.508Z,13.40
2022-12-19T14:36:49.796Z,13.10
2022-12-19T14:39:29.649Z,12.60
2022-12-19T14:43:59.131Z,13.00
2022-12-19T14:52:25.406Z,13.30
2022-12-19T14:53:52.265Z,13.10
2022-12-19T14:54:37.845Z,12.30
2022-12-19T14:57:25.522Z,10.90
2022-12-19T15:01:08.009Z,13.30
2022-12-19T15:03:25.216Z,13.00
2022-12-19T15:06:31.529Z,11.90
2022-12-19T15:11:01.070Z,13.40
2022-12-19T15:14:48.491Z,12.20
2022-12-19T15:15:37.661Z,12.60
2022-12-19T15:18:26.498Z,14.90
2022-12-19T15:20:57.504Z,13.50
2022-12-19T15:23:28.960Z,15.30
2022-12-19T15:26:03.824Z,19.50
2022-12-19T15:28:46.387Z,13.90
2022-12-19T15:36:56.063Z,13.50
2022-12-19T15:39:28.375Z,17.70
2022-12-19T15:42:02.629Z,16.90
2022-12-19T15:44:42.476Z,17.80
2022-12-19T15:47:22.075Z,13.30
2022-12-19T15:49:50.361Z,14.70
2022-12-19T15:52:21.718Z,13.40
2022-12-19T15:54:51.116Z,15.30
2022-12-19T15:57:42.245Z,14.50
2022-12-19T16:00:23.544Z,14.30
2022-12-19T16:03:23.990Z,14.00
2022-12-19T16:05:43.051Z,13.70
2022-12-19T16:08:15.074Z,14.90
2022-12-19T16:10:46.178Z,12.60
2022-12-19T16:16:06.560Z,28.70
2022-12-19T16:18:46.418Z,14.30
2022-12-19T16:21:31.477Z,13.70
2022-12-19T16:24:02.418Z,13.40
2022-12-19T16:26:38.840Z,14.30
2022-12-19T16:29:37.024Z,15.40
2022-12-19T16:32:13.660Z,13.70
2022-12-19T16:34:42.253Z,38.20
2022-12-19T16:37:17.291Z,47.10
2022-12-19T16:39:46.156Z,14.70
2022-12-19T16:42:16.759Z,15.50
2022-12-19T16:44:49.354Z,15.40
2022-12-19T16:47:18.552Z,15.40
2022-12-19T16:49:48.976Z,14.80
2022-12-19T16:52:18.006Z,16.00
2022-12-19T16:54:46.647Z,14.20
2022-12-19T16:57:20.263Z,16.40
2022-12-19T16:59:52.959Z,17.80
2022-12-19T17:02:47.690Z,26.70
2022-12-19T17:05:29.958Z,16.50
2022-12-19T17:08:15.802Z,18.60
2022-12-19T17:11:01.712Z,17.10
2022-12-19T17:13:41.089Z,16.70
2022-12-19T17:16:41.654Z,14.40
2022-12-19T17:19:51.148Z,16.40
2022-12-19T17:22:21.653Z,25.40
2022-12-19T17:24:51.496Z,19.00
2022-12-19T17:27:22.454Z,15.30
2022-12-19T17:29:50.745Z,14.00
2022-12-19T17:32:23.927Z,16.80
2022-12-19T17:34:53.084Z,16.40
2022-12-19T17:37:22.826Z,13.70
2022-12-19T17:39:51.372Z,18.00
2022-12-19T17:42:30.868Z,17.80
2022-12-19T17:45:04.116Z,17.60
2022-12-19T17:47:32.513Z,17.60
2022-12-19T17:50:00.712Z,17.20
2022-12-19T17:52:32.259Z,33.10
2022-12-19T17:55:28.328Z,17.40
2022-12-19T17:58:00.512Z,14.40
2022-12-19T18:00:32.959Z,16.00
2022-12-19T18:03:11.270Z,16.20
2022-12-19T18:05:41.086Z,13.70
2022-12-19T18:08:30.734Z,17.00
2022-12-19T18:11:04.648Z,16.50
2022-12-19T18:13:33.780Z,14.20
2022-12-19T18:16:12.443Z,15.60
2022-12-19T18:18:46.277Z,15.90
2022-12-19T18:21:18.171Z,13.60
2022-12-19T18:26:20.258Z,13.90
2022-12-19T18:28:57.928Z,15.00
2022-12-19T18:31:26.751Z,13.80
2022-12-19T18:34:07.295Z,15.10
2022-12-19T18:36:46.728Z,15.40
2022-12-19T18:39:26.015Z,16.20
2022-12-19T18:41:54.946Z,16.40
2022-12-19T18:44:23.633Z,19.80
2022-12-19T18:47:04.304Z,21.70
2022-12-19T18:49:36.938Z,24.10
2022-12-19T18:52:12.183Z,31.10
2022-12-19T18:54:40.677Z,23.30
2022-12-19T18:57:12.263Z,17.60
2022-12-19T18:59:40.762Z,18.90
2022-12-19T19:02:28.550Z,25.00
2022-12-19T19:05:00.003Z,16.00
2022-12-19T19:07:28.738Z,16.60
2022-12-19T19:09:59.847Z,15.40
2022-12-19T19:12:28.338Z,15.80
2022-12-19T19:14:56.753Z,17.00
2022-12-19T19:17:32.605Z,19.10
2022-12-19T19:20:13.374Z,29.70
2022-12-19T19:22:52.397Z,31.20
2022-12-19T19:25:20.907Z,15.30
2022-12-19T19:27:50.248Z,14.50
2022-12-19T19:30:22.357Z,14.20
2022-12-19T19:32:57.856Z,14.30
2022-12-19T19:35:27.601Z,15.10
2022-12-19T19:38:07.006Z,23.40
2022-12-19T19:40:37.197Z,16.40
2022-12-19T19:43:07.284Z,20.60
2022-12-19T19:45:46.491Z,23.60
2022-12-19T19:48:15.588Z,27.10
2022-12-19T19:50:43.977Z,30.00
2022-12-19T19:53:12.608Z,22.10
2022-12-19T19:55:40.927Z,30.20
2022-12-19T19:58:11.817Z,16.70
2022-12-19T20:00:40.589Z,16.80
2022-12-19T20:03:22.303Z,14.70
2022-12-19T20:06:01.414Z,16.00
2022-12-19T20:08:58.262Z,15.10
2022-12-19T20:11:29.082Z,12.70
2022-12-19T20:14:39.234Z,19.90
2022-12-19T20:17:30.519Z,15.30
2022-12-19T20:20:00.336Z,15.80
2022-12-19T20:22:40.853Z,23.90
2022-12-19T20:25:18.287Z,16.20
2022-12-19T20:28:01.549Z,16.70
2022-12-19T20:30:38.595Z,18.10
2022-12-19T20:33:07.743Z,14.60
2022-12-19T20:35:37.366Z,15.20
2022-12-19T20:38:11.341Z,15.90
2022-12-19T20:40:40.146Z,13.20
2022-12-19T20:43:11.943Z,35.60
2022-12-19T20:45:40.401Z,15.90
2022-12-19T20:48:08.818Z,12.70
2022-12-19T20:50:43.166Z,13.50
2022-12-19T20:53:12.107Z,14.80
2022-12-19T20:55:40.581Z,14.10
2022-12-19T20:58:21.161Z,12.90
2022-12-19T21:01:06.567Z,14.10
2022-12-19T21:03:46.820Z,13.10
2022-12-19T21:06:20.136Z,13.80
2022-12-19T21:08:52.923Z,12.20
2022-12-19T21:11:24.272Z,13.40
2022-12-19T21:13:56.871Z,13.90
2022-12-19T21:16:31.492Z,14.10
2022-12-19T21:19:03.402Z,13.10
2022-12-19T21:21:32.465Z,11.70
2022-12-19T21:24:02.340Z,17.10
2022-12-19T21:26:46.579Z,27.80
2022-12-19T21:29:15.490Z,14.40
2022-12-19T21:31:45.414Z,13.00
2022-12-19T21:34:16.839Z,12.30
2022-12-19T21:39:19.447Z,11.30
2022-12-19T21:41:50.884Z,13.20
2022-12-19T21:44:22.604Z,13.20
2022-12-19T21:47:01.364Z,24.50
2022-12-19T21:49:30.102Z,15.60
2022-12-19T21:51:58.685Z,12.40
2022-12-19T21:54:29.467Z,12.70
2022-12-19T21:56:57.894Z,13.30
2022-12-19T21:59:26.369Z,12.80
2022-12-19T22:01:55.683Z,11.50
2022-12-19T22:04:42.165Z,12.20
2022-12-19T22:07:14.790Z,12.00
2022-12-19T22:09:44.134Z,12.40
2022-12-19T22:12:13.196Z,22.70
2022-12-19T22:14:45.985Z,14.40
2022-12-19T22:17:24.888Z,18.50
2022-12-19T22:20:02.260Z,11.80
2022-12-19T22:22:33.662Z,12.60
2022-12-19T22:25:05.287Z,13.80
2022-12-19T22:27:34.013Z,13.00
2022-12-19T22:30:08.739Z,11.20
2022-12-19T22:32:39.930Z,11.00
2022-12-19T22:35:08.805Z,11.30
2022-12-19T22:37:37.618Z,10.90
2022-12-19T22:40:06.827Z,13.00
2022-12-19T22:42:35.099Z,12.40
2022-12-19T22:45:04.447Z,13.70
2022-12-19T22:47:32.596Z,11.40
2022-12-19T22:50:00.967Z,12.50
2022-12-19T22:52:30.923Z,10.90
2022-12-19T22:54:59.519Z,12.90
2022-12-19T22:57:28.056Z,11.70
2022-12-19T22:59:56.307Z,12.20
2022-12-19T23:02:24.718Z,10.80
2022-12-19T23:04:53.050Z,9.30
2022-12-19T23:07:21.286Z,11.20
2022-12-19T23:09:49.392Z,11.00
2022-12-19T23:12:17.616Z,9.50
2022-12-19T23:14:45.754Z,13.00
2022-12-19T23:17:13.926Z,11.70
2022-12-19T23:19:42.172Z,11.30
2022-12-19T23:22:10.341Z,9.70
2022-12-19T23:24:38.880Z,9.40
2022-12-19T23:27:07.111Z,12.10
2022-12-19T23:29:35.616Z,13.70
2022-12-19T23:32:03.921Z,10.50
2022-12-19T23:34:32.045Z,11.80
2022-12-19T23:37:10.868Z,10.60
2022-12-19T23:39:40.054Z,10.90
2022-12-19T23:42:08.183Z,11.10
2022-12-19T23:44:36.590Z,10.70
2022-12-19T23:47:04.711Z,10.60
2022-12-19T23:49:33.942Z,10.90
2022-12-19T23:52:02.047Z,11.70
2022-12-19T23:54:30.491Z,11.90
2022-12-19T23:56:58.615Z,9.20
2022-12-19T23:59:26.972Z,11.10
